Time;durP1;ratioP1;P1;durP2;ratioP2;P2;SDS_P1;SDS_P2;PMS_P1;PMS_P2;Temp;Humidity;BMP_temperature;BMP_pressure;BME280_temperature;BME280_humidity;BME280_pressure;Samples;Min_cycle;Max_cycle;Signal;HPM_P1;HPM_P2
2023/08/27 00:01:31;;;;;;;23.23;19.10;;;15.60;99.90;;;;;;4963658;28;20050;-85
2023/08/27 00:03:57;;;;;;;22.58;18.33;;;15.60;99.90;;;;;;4953692;28;20086;-84
2023/08/27 00:06:23;;;;;;;26.23;18.33;;;15.60;99.90;;;;;;4973167;28;20026;-82
2023/08/27 00:08:50;;;;;;;20.63;17.27;;;15.60;99.90;;;;;;4972876;28;20022;-83
2023/08/27 00:11:16;;;;;;;23.92;19.20;;;15.70;99.90;;;;;;4948525;28;20467;-84
2023/08/27 00:13:41;;;;;;;20.38;17.92;;;15.70;99.90;;;;;;4973513;28;20067;-86
2023/08/27 00:16:07;;;;;;;20.70;17.13;;;15.70;99.90;;;;;;4954868;28;20027;-83
2023/08/27 00:18:33;;;;;;;19.02;16.92;;;15.80;99.90;;;;;;4982794;28;20506;-85
2023/08/27 00:20:59;;;;;;;20.92;18.67;;;15.80;99.90;;;;;;4960809;28;20117;-83
2023/08/27 00:23:25;;;;;;;19.08;16.10;;;15.80;99.90;;;;;;4963974;28;20098;-84
2023/08/27 00:25:51;;;;;;;21.00;17.65;;;15.80;99.90;;;;;;4973734;28;20015;-85
2023/08/27 00:28:17;;;;;;;20.58;15.70;;;15.90;99.90;;;;;;4976457;28;20019;-82
2023/08/27 00:30:43;;;;;;;19.30;16.75;;;16.00;99.90;;;;;;4985193;28;20031;-85
2023/08/27 00:33:09;;;;;;;16.95;14.70;;;16.00;99.90;;;;;;4967641;28;20388;-85
2023/08/27 00:35:36;;;;;;;18.48;15.13;;;16.00;99.90;;;;;;4978879;28;20023;-82
2023/08/27 00:38:02;;;;;;;19.13;14.55;;;16.00;99.90;;;;;;4961062;28;20023;-82
2023/08/27 00:40:29;;;;;;;17.42;15.40;;;16.10;99.90;;;;;;4956496;28;20480;-83
2023/08/27 00:42:55;;;;;;;18.17;16.20;;;16.10;99.90;;;;;;4973291;28;20074;-82
2023/08/27 00:45:21;;;;;;;17.73;15.35;;;16.00;99.90;;;;;;4975151;28;20058;-83
2023/08/27 00:47:48;;;;;;;18.58;14.68;;;16.10;99.90;;;;;;4977288;28;20023;-84
2023/08/27 00:50:14;;;;;;;26.98;15.05;;;16.10;99.90;;;;;;4975373;28;20015;-85
2023/08/27 00:52:42;;;;;;;18.00;14.73;;;16.10;99.90;;;;;;4980189;28;20085;-84
2023/08/27 00:55:08;;;;;;;15.68;13.80;;;16.10;99.90;;;;;;4982466;28;20468;-85
2023/08/27 00:57:38;;;;;;;15.98;14.40;;;16.10;99.90;;;;;;4982898;28;20106;-84
2023/08/27 01:00:09;;;;;;;17.27;14.35;;;16.00;99.90;;;;;;4974719;28;20105;-86
2023/08/27 01:02:35;;;;;;;18.92;14.60;;;16.10;99.90;;;;;;4955841;28;20027;-84
2023/08/27 01:05:01;;;;;;;16.70;14.45;;;16.10;99.90;;;;;;4977956;28;20051;-85
2023/08/27 01:07:36;;;;;;;15.93;14.25;;;16.10;99.90;;;;;;4970626;28;20070;-85
2023/08/27 01:10:13;;;;;;;15.70;13.80;;;16.10;99.90;;;;;;4970382;28;20497;-86
2023/08/27 01:13:04;;;;;;;16.25;13.88;;;16.10;99.90;;;;;;4972025;28;20087;-84
2023/08/27 01:15:31;;;;;;;16.13;14.18;;;16.10;99.90;;;;;;4976421;28;20110;-85
2023/08/27 01:17:59;;;;;;;15.77;13.57;;;16.10;99.90;;;;;;4976409;28;20042;-84
2023/08/27 01:20:26;;;;;;;15.18;13.63;;;16.10;99.90;;;;;;4976577;28;20102;-84
2023/08/27 01:22:52;;;;;;;15.95;13.30;;;16.10;99.90;;;;;;4952494;28;20023;-85
2023/08/27 01:25:22;;;;;;;20.27;15.20;;;16.10;99.90;;;;;;4957536;28;20035;-84
2023/08/27 01:28:04;;;;;;;18.73;14.35;;;16.10;99.90;;;;;;4975407;28;20022;-84
2023/08/27 01:30:39;;;;;;;16.38;14.73;;;16.10;99.90;;;;;;4953758;28;20027;-84
2023/08/27 01:33:15;;;;;;;18.40;15.20;;;16.10;99.90;;;;;;4965238;28;20496;-83
2023/08/27 01:35:41;;;;;;;18.77;14.45;;;16.20;99.90;;;;;;4957769;28;20034;-83
2023/08/27 01:38:07;;;;;;;18.13;15.07;;;16.20;99.90;;;;;;4986884;28;20416;-83
2023/08/27 01:40:33;;;;;;;19.90;15.30;;;16.20;99.90;;;;;;4964774;28;20257;-83
2023/08/27 01:42:59;;;;;;;17.60;14.35;;;16.20;99.90;;;;;;4977089;28;20058;-83
2023/08/27 01:45:25;;;;;;;14.68;13.15;;;16.20;99.90;;;;;;4960316;28;20027;-85
2023/08/27 01:47:51;;;;;;;21.25;14.25;;;16.20;99.90;;;;;;4977755;28;20038;-83
2023/08/27 01:50:16;;;;;;;17.10;14.27;;;16.20;99.90;;;;;;4975876;28;20027;-82
2023/08/27 01:52:42;;;;;;;14.30;12.77;;;16.20;99.90;;;;;;4973004;28;20055;-86
2023/08/27 01:55:08;;;;;;;15.85;12.68;;;16.20;99.90;;;;;;4956686;28;20026;-85
2023/08/27 01:57:34;;;;;;;15.55;12.82;;;16.10;99.90;;;;;;4982526;28;20037;-85
2023/08/27 02:00:00;;;;;;;14.23;12.27;;;16.10;99.90;;;;;;4957889;28;20110;-86
2023/08/27 02:02:26;;;;;;;14.60;11.52;;;16.10;99.90;;;;;;4979892;28;20027;-87
2023/08/27 02:04:52;;;;;;;12.88;11.20;;;16.10;99.90;;;;;;4979998;28;20030;-84
2023/08/27 02:07:17;;;;;;;13.38;11.40;;;16.10;99.90;;;;;;4975661;28;20385;-83
2023/08/27 02:09:43;;;;;;;13.80;12.25;;;16.10;99.90;;;;;;4975938;28;20042;-83
2023/08/27 02:12:09;;;;;;;14.57;12.32;;;16.20;99.90;;;;;;4958309;28;20440;-84
2023/08/27 02:14:36;;;;;;;15.48;12.13;;;16.10;99.90;;;;;;4975876;28;20026;-84
2023/08/27 02:17:02;;;;;;;15.63;11.75;;;16.10;99.90;;;;;;4973321;28;20481;-84
2023/08/27 02:19:28;;;;;;;12.55;10.95;;;16.10;99.90;;;;;;4984761;28;20150;-84
2023/08/27 02:21:54;;;;;;;15.80;11.05;;;16.20;99.90;;;;;;4996158;28;20031;-84
2023/08/27 02:24:19;;;;;;;11.93;10.68;;;16.10;99.90;;;;;;4981590;28;20038;-83
2023/08/27 02:26:45;;;;;;;14.68;11.65;;;16.10;99.90;;;;;;4981708;28;20898;-84
2023/08/27 02:29:11;;;;;;;14.48;10.65;;;16.10;99.90;;;;;;4977951;28;20022;-83
2023/08/27 02:31:37;;;;;;;12.02;10.80;;;16.10;99.90;;;;;;4983142;28;20404;-83
2023/08/27 02:34:03;;;;;;;12.80;11.50;;;16.20;99.90;;;;;;4981275;28;20019;-85
2023/08/27 02:36:29;;;;;;;12.93;11.38;;;16.10;99.90;;;;;;4961831;28;20038;-84
2023/08/27 02:38:54;;;;;;;14.07;11.15;;;16.10;99.90;;;;;;4976259;28;20027;-85
2023/08/27 02:41:20;;;;;;;12.57;11.20;;;16.10;99.90;;;;;;4975996;28;20042;-83
2023/08/27 02:43:46;;;;;;;14.80;11.40;;;16.10;99.90;;;;;;4960874;28;20026;-83
2023/08/27 02:46:12;;;;;;;12.65;11.38;;;16.10;99.90;;;;;;4976100;28;20018;-83
2023/08/27 02:48:37;;;;;;;14.75;11.18;;;16.10;99.90;;;;;;4965275;28;20360;-84
2023/08/27 02:51:03;;;;;;;12.75;11.40;;;16.20;99.90;;;;;;4967307;28;20034;-85
2023/08/27 02:53:29;;;;;;;13.38;11.40;;;16.20;99.90;;;;;;4974977;28;20130;-83
2023/08/27 02:55:55;;;;;;;21.05;13.15;;;16.30;99.90;;;;;;4975578;28;20022;-84
2023/08/27 02:58:21;;;;;;;12.30;11.05;;;16.30;99.90;;;;;;4978901;28;20021;-84
2023/08/27 03:00:47;;;;;;;14.25;12.00;;;16.30;99.90;;;;;;4991293;28;20045;-84
2023/08/27 03:03:13;;;;;;;20.25;12.38;;;16.30;99.90;;;;;;4979339;28;20503;-85
2023/08/27 03:05:40;;;;;;;15.27;11.68;;;16.30;99.90;;;;;;4977571;28;20042;-83
2023/08/27 03:08:06;;;;;;;13.20;11.13;;;16.40;99.90;;;;;;4985367;28;20019;-84
2023/08/27 03:10:32;;;;;;;13.30;10.70;;;16.40;99.90;;;;;;4961374;28;20041;-83
2023/08/27 03:12:58;;;;;;;20.33;13.18;;;16.40;99.90;;;;;;4989948;28;20026;-82
2023/08/27 03:15:23;;;;;;;13.18;11.77;;;16.50;99.90;;;;;;4991933;28;20019;-84
2023/08/27 03:17:49;;;;;;;14.35;11.35;;;16.50;99.90;;;;;;4979490;28;20130;-83
2023/08/27 03:20:15;;;;;;;12.07;10.75;;;16.50;99.90;;;;;;4975268;28;20018;-83
2023/08/27 03:22:41;;;;;;;13.18;10.95;;;16.50;99.90;;;;;;4974922;28;20030;-83
2023/08/27 03:25:07;;;;;;;12.40;11.10;;;16.40;99.90;;;;;;4957663;28;20090;-83
2023/08/27 03:27:36;;;;;;;13.40;11.07;;;16.50;99.90;;;;;;4956271;28;20085;-84
2023/08/27 03:30:03;;;;;;;14.13;11.32;;;16.50;99.90;;;;;;4956483;28;20029;-84
2023/08/27 03:32:29;;;;;;;12.27;10.80;;;16.60;99.90;;;;;;4974106;28;20392;-83
2023/08/27 03:34:55;;;;;;;13.82;11.20;;;16.60;99.90;;;;;;4956608;28;20109;-84
2023/08/27 03:37:21;;;;;;;13.23;11.07;;;16.60;99.90;;;;;;4971924;28;20034;-82
2023/08/27 03:39:47;;;;;;;12.68;11.38;;;16.50;99.90;;;;;;4975199;28;20392;-84
2023/08/27 03:42:13;;;;;;;13.48;12.07;;;16.50;99.90;;;;;;4970337;28;20023;-83
2023/08/27 03:44:40;;;;;;;13.85;11.65;;;16.60;99.90;;;;;;4974168;28;20031;-84
2023/08/27 03:47:06;;;;;;;12.40;11.23;;;16.60;99.90;;;;;;4956415;28;20026;-83
2023/08/27 03:49:31;;;;;;;15.27;11.57;;;16.60;99.90;;;;;;4974084;28;20503;-83
2023/08/27 03:51:57;;;;;;;13.80;12.43;;;16.60;99.90;;;;;;4959287;28;20035;-83
2023/08/27 03:54:23;;;;;;;14.82;12.07;;;16.70;99.90;;;;;;4973587;28;20206;-83
2023/08/27 03:56:49;;;;;;;13.65;11.55;;;16.80;99.90;;;;;;4981286;28;20023;-84
2023/08/27 03:59:15;;;;;;;14.35;12.13;;;16.80;99.90;;;;;;4956163;28;20520;-83
2023/08/27 04:01:41;;;;;;;13.13;11.82;;;16.80;99.90;;;;;;4974136;28;20023;-84
2023/08/27 04:04:07;;;;;;;15.68;13.40;;;16.90;99.90;;;;;;4947517;28;20043;-84
2023/08/27 04:06:32;;;;;;;16.40;13.05;;;16.80;99.90;;;;;;4965191;28;20034;-85
2023/08/27 04:08:58;;;;;;;16.13;12.93;;;16.80;99.90;;;;;;4976992;28;20030;-85
2023/08/27 04:11:24;;;;;;;15.75;14.10;;;16.90;99.90;;;;;;4994060;28;20042;-86
2023/08/27 04:13:50;;;;;;;14.80;12.73;;;16.90;99.90;;;;;;4961407;28;20030;-83
2023/08/27 04:16:16;;;;;;;15.05;13.55;;;16.90;99.90;;;;;;4974281;28;20042;-85
2023/08/27 04:18:42;;;;;;;15.25;13.70;;;17.00;99.90;;;;;;4977424;28;20019;-85
2023/08/27 04:21:07;;;;;;;14.77;13.23;;;17.00;99.90;;;;;;4972483;28;20436;-86
2023/08/27 04:23:33;;;;;;;15.73;13.57;;;17.00;99.90;;;;;;4974616;28;20034;-84
2023/08/27 04:25:59;;;;;;;13.95;12.52;;;16.90;99.90;;;;;;4974060;28;20437;-84
2023/08/27 04:28:25;;;;;;;14.93;13.02;;;16.90;99.90;;;;;;4955571;28;20031;-83
2023/08/27 04:30:50;;;;;;;15.48;13.32;;;17.00;99.90;;;;;;4973518;28;20642;-84
2023/08/27 04:33:17;;;;;;;18.70;14.45;;;17.00;99.90;;;;;;4958830;28;20057;-85
2023/08/27 04:35:44;;;;;;;15.98;12.95;;;17.00;99.90;;;;;;4978224;28;20030;-84
2023/08/27 04:38:10;;;;;;;18.92;16.88;;;17.00;99.90;;;;;;4975449;28;20034;-85
2023/08/27 04:40:36;;;;;;;14.25;12.10;;;16.90;99.90;;;;;;4959806;28;20043;-84
2023/08/27 04:43:03;;;;;;;13.73;12.43;;;16.90;99.90;;;;;;4965258;28;20019;-83
2023/08/27 04:45:28;;;;;;;14.60;12.95;;;16.80;99.90;;;;;;4960837;28;20459;-83
2023/08/27 04:47:54;;;;;;;15.65;13.18;;;16.90;99.90;;;;;;4985503;28;20074;-84
2023/08/27 04:50:20;;;;;;;14.75;13.02;;;17.00;99.90;;;;;;4982963;28;20488;-83
2023/08/27 04:52:46;;;;;;;16.40;12.32;;;17.10;99.90;;;;;;4976666;28;20058;-82
2023/08/27 04:55:12;;;;;;;13.77;12.55;;;17.10;99.90;;;;;;4976696;28;20033;-83
2023/08/27 04:57:38;;;;;;;15.05;13.55;;;17.20;99.90;;;;;;4976898;28;20031;-84
2023/08/27 05:00:09;;;;;;;14.00;12.60;;;17.20;99.70;;;;;;4976475;28;20027;-83
2023/08/27 05:02:35;;;;;;;16.50;14.68;;;17.20;99.60;;;;;;4959001;28;20023;-83
2023/08/27 05:05:02;;;;;;;19.67;17.77;;;17.20;99.70;;;;;;4960106;28;20034;-83
2023/08/27 05:07:28;;;;;;;19.65;17.75;;;17.30;99.40;;;;;;4959966;28;20027;-82
2023/08/27 05:09:54;;;;;;;19.13;17.30;;;17.20;99.50;;;;;;4976114;28;20114;-83
2023/08/27 05:12:20;;;;;;;18.15;16.23;;;17.20;99.60;;;;;;4959980;28;20031;-82
2023/08/27 05:14:46;;;;;;;17.83;16.10;;;17.20;99.70;;;;;;4976504;28;20114;-82
2023/08/27 05:17:12;;;;;;;19.20;17.27;;;17.30;99.40;;;;;;4975857;28;20062;-83
2023/08/27 05:19:37;;;;;;;19.70;17.75;;;17.40;99.30;;;;;;4959551;28;20051;-84
2023/08/27 05:22:03;;;;;;;22.35;20.05;;;17.30;99.10;;;;;;4976405;28;20023;-83
2023/08/27 05:24:29;;;;;;;21.08;18.88;;;17.30;99.10;;;;;;4977441;28;20078;-81
2023/08/27 05:26:55;;;;;;;19.55;17.80;;;17.30;99.20;;;;;;4976294;28;20030;-82
2023/08/27 05:29:21;;;;;;;20.17;18.17;;;17.40;99.10;;;;;;4958749;28;20440;-83
2023/08/27 05:31:47;;;;;;;19.80;17.77;;;17.40;99.00;;;;;;4958544;28;20037;-83
2023/08/27 05:34:14;;;;;;;20.15;17.13;;;17.40;98.80;;;;;;4958626;28;20033;-82
2023/08/27 05:36:40;;;;;;;18.30;16.30;;;17.40;98.90;;;;;;4971613;28;20055;-82
2023/08/27 05:39:06;;;;;;;19.45;17.75;;;17.50;98.80;;;;;;4977987;28;20066;-83
2023/08/27 05:41:32;;;;;;;19.50;17.48;;;17.60;98.60;;;;;;4975657;28;20023;-83
2023/08/27 05:43:58;;;;;;;19.60;17.60;;;17.70;98.30;;;;;;4975381;28;20469;-82
2023/08/27 05:46:24;;;;;;;18.05;16.15;;;17.80;98.30;;;;;;4970809;28;20376;-83
2023/08/27 05:48:50;;;;;;;19.02;17.00;;;17.80;98.10;;;;;;4957968;28;20026;-84
2023/08/27 05:51:16;;;;;;;18.15;16.25;;;17.90;97.70;;;;;;4967782;28;20587;-84
2023/08/27 05:53:42;;;;;;;18.05;15.90;;;17.80;97.50;;;;;;4970749;28;20125;-83
2023/08/27 05:56:09;;;;;;;15.93;14.40;;;17.80;97.50;;;;;;4980759;28;20051;-83
2023/08/27 05:58:35;;;;;;;17.52;15.77;;;17.70;97.50;;;;;;4976301;28;20077;-84
2023/08/27 06:01:04;;;;;;;15.80;14.32;;;17.70;97.50;;;;;;4969150;28;20014;-84
2023/08/27 06:03:30;;;;;;;17.45;15.50;;;17.70;97.50;;;;;;4985132;28;20041;-85
2023/08/27 06:05:56;;;;;;;16.48;14.93;;;17.80;97.60;;;;;;4976318;28;20015;-85
2023/08/27 06:08:22;;;;;;;15.13;13.15;;;18.00;97.20;;;;;;4976045;28;20046;-85
2023/08/27 06:10:48;;;;;;;13.90;12.70;;;18.10;97.10;;;;;;4976886;28;20026;-85
2023/08/27 06:13:13;;;;;;;14.40;13.10;;;18.30;96.70;;;;;;4963684;28;20035;-85
2023/08/27 06:15:39;;;;;;;13.68;12.38;;;18.60;96.30;;;;;;4976365;28;20030;-84
2023/08/27 06:18:06;;;;;;;13.80;12.23;;;19.30;96.10;;;;;;4994626;28;20090;-83
2023/08/27 06:20:33;;;;;;;12.85;11.65;;;20.00;94.00;;;;;;4989051;28;20070;-84
2023/08/27 06:23:00;;;;;;;12.93;11.63;;;20.40;92.60;;;;;;4988065;28;20034;-85
2023/08/27 06:25:26;;;;;;;13.35;12.05;;;20.60;92.20;;;;;;4989944;28;20029;-84
2023/08/27 06:27:55;;;;;;;13.43;12.10;;;20.60;92.00;;;;;;4961461;28;20421;-84
2023/08/27 06:30:22;;;;;;;11.32;10.23;;;20.70;91.40;;;;;;4969225;28;20031;-83
2023/08/27 06:32:48;;;;;;;13.32;10.40;;;20.80;91.50;;;;;;4967883;28;20027;-84
2023/08/27 06:35:14;;;;;;;12.02;10.45;;;21.80;91.20;;;;;;4953087;28;20507;-83
2023/08/27 06:37:40;;;;;;;11.32;10.15;;;23.00;86.80;;;;;;4964553;28;20038;-88
2023/08/27 06:40:07;;;;;;;11.75;10.55;;;23.30;83.00;;;;;;4968708;28;20027;-85
2023/08/27 06:42:34;;;;;;;15.90;10.23;;;23.10;81.90;;;;;;4957698;28;20502;-84
2023/08/27 06:45:00;;;;;;;11.57;10.48;;;23.00;82.40;;;;;;4973208;28;20059;-86
2023/08/27 06:47:26;;;;;;;10.33;9.27;;;22.80;82.20;;;;;;4968848;28;20030;-85
2023/08/27 06:49:52;;;;;;;13.02;10.60;;;22.40;82.70;;;;;;4972525;28;20099;-83
2023/08/27 06:52:18;;;;;;;10.55;9.45;;;22.10;84.10;;;;;;4946123;28;20071;-85
2023/08/27 06:54:44;;;;;;;12.80;10.55;;;22.00;84.40;;;;;;4957748;28;20030;-83
2023/08/27 06:57:10;;;;;;;12.05;10.68;;;22.00;84.80;;;;;;4975033;28;20031;-83
2023/08/27 06:59:36;;;;;;;11.25;10.02;;;22.00;84.80;;;;;;4946848;28;20027;-85
2023/08/27 07:02:03;;;;;;;14.27;11.35;;;22.00;84.40;;;;;;4973724;28;20507;-83
2023/08/27 07:04:29;;;;;;;12.15;10.95;;;21.90;84.30;;;;;;4956721;28;20118;-83
2023/08/27 07:06:55;;;;;;;12.68;11.25;;;21.80;84.30;;;;;;4975208;28;20499;-83
2023/08/27 07:09:23;;;;;;;11.55;10.35;;;21.80;84.40;;;;;;4957158;28;20105;-84
2023/08/27 07:11:49;;;;;;;17.90;14.43;;;21.80;84.60;;;;;;4959408;28;20027;-84
2023/08/27 07:14:15;;;;;;;16.75;10.77;;;21.90;84.80;;;;;;4981416;28;20079;-83
2023/08/27 07:16:41;;;;;;;11.50;10.40;;;22.00;84.20;;;;;;4957981;28;20031;-82
2023/08/27 07:19:07;;;;;;;13.77;12.38;;;22.20;84.00;;;;;;4958038;28;20468;-83
2023/08/27 07:21:33;;;;;;;12.38;10.35;;;22.30;83.40;;;;;;4969090;28;20036;-84
2023/08/27 07:23:59;;;;;;;12.30;10.93;;;23.50;82.80;;;;;;4977354;28;20074;-85
2023/08/27 07:26:25;;;;;;;12.43;10.90;;;25.00;77.60;;;;;;4969680;28;20396;-85
2023/08/27 07:28:51;;;;;;;11.70;10.43;;;26.40;73.30;;;;;;4973890;28;20019;-87
2023/08/27 07:31:17;;;;;;;12.57;10.50;;;27.80;69.60;;;;;;4972667;28;20369;-84
2023/08/27 07:33:43;;;;;;;10.30;9.25;;;28.60;64.70;;;;;;4968623;28;20503;-84
2023/08/27 07:36:09;;;;;;;10.70;9.65;;;29.60;63.00;;;;;;4973887;28;20427;-84
2023/08/27 07:38:40;;;;;;;10.30;9.37;;;30.70;59.80;;;;;;4973362;28;20147;-85
2023/08/27 07:41:06;;;;;;;9.75;8.73;;;31.20;57.70;;;;;;4973859;28;20026;-84
2023/08/27 07:43:32;;;;;;;10.07;9.13;;;31.90;56.00;;;;;;4956915;28;20027;-86
2023/08/27 07:45:58;;;;;;;11.50;10.00;;;31.90;54.00;;;;;;4955323;28;20033;-84
2023/08/27 07:48:24;;;;;;;13.68;9.55;;;31.00;54.30;;;;;;4960560;28;20162;-85
2023/08/27 07:50:50;;;;;;;12.05;10.45;;;29.70;55.80;;;;;;4967467;28;20028;-83
2023/08/27 07:53:16;;;;;;;11.07;9.95;;;28.30;57.60;;;;;;4976602;28;20049;-84
2023/08/27 07:55:42;;;;;;;12.05;9.15;;;27.30;60.90;;;;;;4975484;28;20023;-83
2023/08/27 07:58:08;;;;;;;10.75;9.25;;;27.80;61.30;;;;;;4988596;28;20027;-83
2023/08/27 08:00:34;;;;;;;11.27;7.88;;;29.50;59.20;;;;;;4991710;28;20029;-84
2023/08/27 08:03:00;;;;;;;9.07;7.78;;;31.40;55.00;;;;;;4974890;28;20026;-85
2023/08/27 08:05:25;;;;;;;11.83;7.97;;;32.40;51.80;;;;;;4974365;28;20046;-87
2023/08/27 08:07:52;;;;;;;10.37;8.00;;;33.00;51.10;;;;;;4956601;28;20033;-90
2023/08/27 08:10:20;;;;;;;8.40;7.60;;;34.20;49.70;;;;;;4955738;28;20453;-86
2023/08/27 08:12:46;;;;;;;8.77;6.70;;;35.30;47.50;;;;;;4972926;28;20449;-85
2023/08/27 08:15:12;;;;;;;13.50;9.27;;;35.00;44.70;;;;;;4957080;28;20162;-85
2023/08/27 08:17:38;;;;;;;8.13;7.10;;;33.20;46.80;;;;;;4974474;28;20276;-89
2023/08/27 08:20:05;;;;;;;11.77;7.73;;;31.90;49.40;;;;;;4946994;28;20138;-90
2023/08/27 08:22:30;;;;;;;;;;;31.70;49.60;;;;;;4968519;28;20027;-88
2023/08/27 08:24:56;;;;;;;12.90;7.75;;;32.00;50.80;;;;;;4971445;28;19932;-87
2023/08/27 08:27:22;;;;;;;11.30;7.95;;;33.20;48.70;;;;;;4957107;28;20033;-89
2023/08/27 08:29:49;;;;;;;16.95;7.72;;;34.80;47.10;;;;;;4976114;28;20125;-89
2023/08/27 08:32:15;;;;;;;8.73;7.35;;;36.00;44.80;;;;;;4977229;28;20030;-89
2023/08/27 08:34:41;;;;;;;11.50;8.25;;;36.90;43.40;;;;;;4969710;28;20082;-88
2023/08/27 08:37:07;;;;;;;9.02;7.57;;;35.90;42.70;;;;;;4978562;28;20038;-90
2023/08/27 08:39:34;;;;;;;22.52;10.20;;;33.80;44.90;;;;;;4957187;28;20091;-89
2023/08/27 08:42:31;;;;;;;9.35;8.10;;;32.00;48.10;;;;;;4982231;28;20495;-88
2023/08/27 08:45:37;;;;;;;11.35;8.98;;;30.80;50.60;;;;;;4963495;28;20026;-88
2023/08/27 08:48:06;;;;;;;9.45;8.00;;;31.50;50.80;;;;;;4978060;28;20094;-88
2023/08/27 08:50:35;;;;;;;10.25;8.60;;;33.10;48.50;;;;;;4977929;28;20508;-89
2023/08/27 08:53:13;;;;;;;10.05;6.53;;;34.60;46.80;;;;;;4986892;28;20061;-87
2023/08/27 08:55:43;;;;;;;11.95;7.15;;;36.00;44.60;;;;;;4942729;28;20035;-84
2023/08/27 08:58:11;;;;;;;18.10;9.50;;;37.20;42.90;;;;;;4967432;28;20596;-87
2023/08/27 09:00:37;;;;;;;11.23;7.13;;;38.40;42.20;;;;;;4968145;28;20086;-84
2023/08/27 09:03:03;;;;;;;7.07;6.25;;;;;;;;;;4971051;28;20496;-85
2023/08/27 09:05:33;;;;;;;10.57;6.40;;;38.70;39.00;;;;;;4964408;28;20045;-88
2023/08/27 09:08:00;;;;;;;8.07;5.80;;;39.40;40.20;;;;;;4954868;28;20109;-87
2023/08/27 09:10:27;;;;;;;8.90;5.70;;;;;;;;;;4955701;28;20022;-86
2023/08/27 09:12:57;;;;;;;7.63;6.28;;;40.20;37.50;;;;;;4958222;28;20043;-86
2023/08/27 09:15:23;;;;;;;7.03;5.70;;;40.30;38.40;;;;;;4971385;28;20377;-87
2023/08/27 09:17:49;;;;;;;9.50;6.55;;;40.20;36.90;;;;;;4968603;28;20384;-84
2023/08/27 09:20:15;;;;;;;8.05;5.70;;;37.30;38.20;;;;;;4975413;28;20037;-85
2023/08/27 09:22:50;;;;;;;10.00;6.57;;;35.60;40.10;;;;;;4941152;28;20114;-85
2023/08/27 09:25:16;;;;;;;11.50;6.20;;;;;;;;;;4954357;28;20026;-84
2023/08/27 09:27:43;;;;;;;11.55;7.15;;;;;;;;;;4976235;28;20102;-84
2023/08/27 09:30:10;;;;;;;8.88;5.97;;;;;;;;;;4973865;28;20035;-84
2023/08/27 09:32:36;;;;;;;;;;;;;;;;;;4979069;28;20038;-84
2023/08/27 09:35:04;;;;;;;8.45;6.93;;;32.60;45.50;;;;;;4985337;28;19969;-85
2023/08/27 09:37:39;;;;;;;7.85;6.70;;;31.90;45.40;;;;;;4973886;28;20031;-86
2023/08/27 09:40:09;;;;;;;9.10;7.50;;;30.20;47.80;;;;;;4977924;28;20022;-85
2023/08/27 09:42:36;;;;;;;11.32;7.65;;;29.20;50.60;;;;;;4975337;28;20115;-84
2023/08/27 09:45:02;;;;;;;11.90;7.82;;;29.70;50.30;;;;;;4987155;28;20070;-84
2023/08/27 09:47:34;;;;;;;7.70;6.97;;;29.50;50.10;;;;;;4976833;28;20055;-84
2023/08/27 09:50:03;;;;;;;7.82;5.85;;;28.80;50.30;;;;;;4958332;28;20062;-84
2023/08/27 09:52:29;;;;;;;11.82;9.80;;;28.30;52.00;;;;;;4976577;28;20543;-87
2023/08/27 09:54:55;;;;;;;7.57;6.65;;;28.50;51.70;;;;;;4978017;28;20023;-86
2023/08/27 09:57:21;;;;;;;8.10;5.57;;;28.10;52.30;;;;;;4978222;28;20373;-85
2023/08/27 09:59:48;;;;;;;8.00;4.67;;;;;;;;;;4976291;28;20053;-87
2023/08/27 10:02:16;;;;;;;5.65;4.57;;;29.80;50.00;;;;;;4975180;28;20491;-87
2023/08/27 10:04:52;;;;;;;5.70;5.00;;;30.30;48.70;;;;;;4958602;28;20027;-85
2023/08/27 10:07:18;;;;;;;11.07;5.28;;;30.10;49.00;;;;;;4976202;28;20038;-86
2023/08/27 10:09:52;;;;;;;9.73;4.87;;;30.80;49.10;;;;;;4972029;28;20019;-86
2023/08/27 10:12:19;;;;;;;8.10;4.10;;;32.10;47.10;;;;;;4978127;28;20090;-84
2023/08/27 10:14:46;;;;;;;6.38;4.00;;;33.20;45.40;;;;;;4980362;28;20023;-87
2023/08/27 10:17:13;;;;;;;8.63;4.03;;;34.10;43.80;;;;;;4971465;28;20023;-85
2023/08/27 10:19:40;;;;;;;6.20;3.53;;;34.20;43.00;;;;;;4977518;28;20019;-86
2023/08/27 10:22:06;;;;;;;6.15;3.53;;;34.10;42.70;;;;;;4965722;28;20283;-88
2023/08/27 10:24:36;;;;;;;5.25;3.30;;;33.60;42.90;;;;;;4977560;28;20023;-86
2023/08/27 10:27:03;;;;;;;4.88;3.40;;;32.30;43.80;;;;;;4977585;28;20062;-88
2023/08/27 10:29:30;;;;;;;5.03;3.40;;;30.60;46.20;;;;;;4968934;28;20027;-87
2023/08/27 10:31:57;;;;;;;9.60;4.65;;;;;;;;;;4977615;28;20106;-85
2023/08/27 10:34:24;;;;;;;7.13;4.50;;;;;;;;;;4976274;28;20492;-88
2023/08/27 10:36:53;;;;;;;9.02;4.90;;;;;;;;;;4958600;28;20388;-87
2023/08/27 10:39:21;;;;;;;9.20;5.18;;;;;;;;;;4976902;28;20026;-86
2023/08/27 10:41:47;;;;;;;5.63;4.32;;;;;;;;;;4962076;28;20037;-86
2023/08/27 10:44:20;;;;;;;12.93;9.80;;;;;;;;;;4959775;28;20019;-89
2023/08/27 10:47:04;;;;;;;7.30;4.47;;;;;;;;;;4971684;28;20030;-84
2023/08/27 10:49:36;;;;;;;6.97;4.10;;;;;;;;;;4968077;28;20031;-85
2023/08/27 10:52:16;;;;;;;6.25;4.20;;;29.00;48.60;;;;;;4981381;28;20038;-87
2023/08/27 10:54:42;;;;;;;8.68;4.90;;;24.20;58.80;;;;;;4957716;28;20094;-84
2023/08/27 10:57:21;;;;;;;11.05;4.72;;;23.70;60.50;;;;;;4959139;28;20033;-85
2023/08/27 10:59:48;;;;;;;5.55;4.05;;;23.70;60.60;;;;;;4971678;28;20499;-89
2023/08/27 11:02:16;;;;;;;5.32;3.85;;;23.70;61.10;;;;;;4975972;28;20078;-83
2023/08/27 11:04:51;;;;;;;5.30;3.47;;;23.60;59.70;;;;;;4967640;28;20026;-83
2023/08/27 11:07:22;;;;;;;4.72;3.95;;;23.50;59.90;;;;;;4978499;28;20078;-90
2023/08/27 11:09:56;;;;;;;5.03;3.38;;;23.40;60.30;;;;;;4983379;28;20019;-90
2023/08/27 11:12:24;;;;;;;5.55;3.22;;;23.40;60.00;;;;;;4977745;28;20088;-88
2023/08/27 11:14:51;;;;;;;6.30;3.20;;;23.30;59.70;;;;;;4976738;28;20023;-85
2023/08/27 11:17:28;;;;;;;3.88;2.83;;;23.30;60.00;;;;;;4978117;28;20073;-86
2023/08/27 11:19:57;;;;;;;4.45;2.92;;;;;;;;;;4980510;28;20055;-90
2023/08/27 11:22:24;;;;;;;5.70;3.50;;;;;;;;;;4947204;28;20143;-87
2023/08/27 11:24:54;;;;;;;10.00;3.88;;;;;;;;;;4973454;28;20026;-89
2023/08/27 11:27:22;;;;;;;8.52;3.50;;;;;;;;;;4980345;28;20042;-88
2023/08/27 11:29:48;;;;;;;;;;;;;;;;;;4968146;28;20507;-87
2023/08/27 11:32:14;;;;;;;3.97;3.10;;;;;;;;;;4970139;28;19942;-89
2023/08/27 11:34:43;;;;;;;11.45;6.10;;;;;;;;;;4969555;28;20046;-87
2023/08/27 11:37:12;;;;;;;7.65;4.65;;;;;;;;;;4984257;28;20082;-90
2023/08/27 11:39:39;;;;;;;6.95;3.88;;;;;;;;;;4979522;28;20029;-90
2023/08/27 11:42:10;;;;;;;8.55;4.00;;;;;;;;;;4962512;28;20035;-91
2023/08/27 11:44:36;;;;;;;8.40;4.82;;;;;;;;;;4966224;29;20091;-91
2023/08/27 11:47:03;;;;;;;7.88;4.70;;;;;;;;;;4978877;28;20027;-90
2023/08/27 11:49:29;;;;;;;;;;;;;;;;;;4975908;28;20038;-90
2023/08/27 11:51:57;;;;;;;5.88;4.50;;;;;;;;;;4967657;28;20379;-88
2023/08/27 11:54:28;;;;;;;5.65;3.83;;;;;;;;;;4989691;28;20034;-91
2023/08/27 11:56:54;;;;;;;9.30;4.93;;;;;;;;;;4953720;28;20023;-92
2023/08/27 11:59:27;;;;;;;5.60;4.60;;;;;;;;;;4959932;28;20023;-89
2023/08/27 12:01:53;;;;;;;10.23;5.55;;;;;;;;;;4956132;28;20052;-89
2023/08/27 12:04:20;;;;;;;8.40;5.03;;;;;;;;;;4968367;28;20028;-89
2023/08/27 12:06:51;;;;;;;9.00;5.55;;;;;;;;;;4966266;28;20268;-88
2023/08/27 12:09:24;;;;;;;11.73;5.10;;;;;;;;;;4966618;28;20034;-89
2023/08/27 12:11:50;;;;;;;9.07;5.13;;;;;;;;;;4959471;28;20038;-88
2023/08/27 12:14:22;;;;;;;6.73;4.23;;;;;;;;;;4975221;28;20488;-89
2023/08/27 12:16:48;;;;;;;5.78;4.45;;;;;;;;;;4959531;28;20417;-86
2023/08/27 12:19:16;;;;;;;6.93;5.50;;;;;;;;;;4957754;28;20030;-89
2023/08/27 12:21:48;;;;;;;7.35;5.00;;;;;;;;;;4942972;28;20035;-87
2023/08/27 12:24:34;;;;;;;14.85;6.10;;;;;;;;;;4976338;28;20082;-87
2023/08/27 12:27:04;;;;;;;8.88;5.57;;;;;;;;;;4970947;28;20094;-86
2023/08/27 12:29:51;;;;;;;8.52;5.82;;;;;;;;;;4955492;28;20065;-87
2023/08/27 12:32:18;;;;;;;10.25;5.72;;;;;;;;;;4975070;28;20042;-86
2023/08/27 12:34:46;;;;;;;8.60;5.70;;;;;;;;;;4968112;28;20437;-89
2023/08/27 12:37:12;;;;;;;8.43;5.60;;;;;;;;;;4989352;28;20111;-89
2023/08/27 12:39:39;;;;;;;8.15;5.30;;;;;;;;;;4958261;28;20446;-92
2023/08/27 12:42:06;;;;;;;12.43;5.90;;;;;;;;;;4977903;28;20029;-88
2023/08/27 12:44:33;;;;;;;8.40;5.63;;;;;;;;;;4982210;28;20034;-85
2023/08/27 12:46:59;;;;;;;11.33;6.80;;;;;;;;;;4978671;28;20102;-89
2023/08/27 12:49:25;;;;;;;8.93;5.95;;;;;;;;;;4964610;28;20273;-89
2023/08/27 12:51:51;;;;;;;10.15;5.65;;;;;;;;;;4976684;28;20086;-88
2023/08/27 12:54:17;;;;;;;10.48;5.97;;;;;;;;;;4975585;28;20055;-88